Time;durP1;ratioP1;P1;durP2;ratioP2;P2;SDS_P1;SDS_P2;PMS_P1;PMS_P2;Temp;Humidity;BMP_temperature;BMP_pressure;BME280_temperature;BME280_humidity;BME280_pressure;Samples;Min_cycle;Max_cycle;Signal;HPM_P1;HPM_P2
2023/09/20 00:01:31;;;;;;;10.75;3.10;;;;;;;17.46;78.20;100831.09;5086046;28;20038;-66
2023/09/20 00:03:57;;;;;;;9.07;2.60;;;;;;;17.46;78.35;100831.09;5088478;28;20111;-66
2023/09/20 00:06:23;;;;;;;6.97;2.88;;;;;;;17.43;78.55;100829.66;5086638;28;20114;-66
2023/09/20 00:08:48;;;;;;;7.28;2.58;;;;;;;17.43;78.40;100826.97;5089126;28;20031;-65
2023/09/20 00:11:15;;;;;;;8.55;2.75;;;;;;;17.43;78.61;100828.84;5089367;28;20020;-66
2023/09/20 00:13:44;;;;;;;7.22;2.53;;;;;;;17.41;78.47;100821.00;5084253;28;20039;-65
2023/09/20 00:16:10;;;;;;;9.00;2.75;;;;;;;17.41;78.65;100826.38;5088897;28;20657;-65
2023/09/20 00:18:36;;;;;;;8.38;2.72;;;;;;;17.39;78.81;100831.13;5088204;28;20024;-66
2023/09/20 00:21:01;;;;;;;6.65;2.55;;;;;;;17.36;79.04;100830.75;5087604;28;20074;-65
2023/09/20 00:23:27;;;;;;;10.10;2.78;;;;;;;17.30;79.17;100827.03;5088703;28;20016;-65
2023/09/20 00:25:53;;;;;;;9.52;3.00;;;;;;;17.28;79.48;100834.47;5089635;28;20019;-66
2023/09/20 00:28:18;;;;;;;8.02;2.50;;;;;;;17.24;79.21;100825.22;5085020;28;20024;-66
2023/09/20 00:30:45;;;;;;;7.70;2.80;;;;;;;17.18;79.42;100818.84;5089756;28;20027;-66
2023/09/20 00:33:10;;;;;;;9.23;3.30;;;;;;;17.12;79.60;100819.72;5085481;28;20046;-66
2023/09/20 00:35:39;;;;;;;9.70;3.05;;;;;;;17.05;79.68;100818.88;5086977;28;20024;-66
2023/09/20 00:38:04;;;;;;;12.40;3.25;;;;;;;17.00;79.91;100816.03;5087914;28;20568;-66
2023/09/20 00:40:32;;;;;;;8.30;2.80;;;;;;;16.91;80.27;100823.50;5087379;28;20550;-66
2023/09/20 00:42:58;;;;;;;8.10;2.57;;;;;;;16.81;80.21;100815.09;5088633;28;20046;-66
2023/09/20 00:45:23;;;;;;;6.43;2.72;;;;;;;16.70;81.05;100805.00;5088709;28;21532;-66
2023/09/20 00:47:55;;;;;;;7.53;2.70;;;;;;;16.63;81.21;100801.50;5088039;28;20106;-66
2023/09/20 00:50:21;;;;;;;8.07;2.83;;;;;;;16.59;81.37;100808.31;5084435;28;20032;-65
2023/09/20 00:52:51;;;;;;;9.48;2.63;;;;;;;16.55;81.81;100817.81;5090030;28;20080;-65
2023/09/20 00:55:20;;;;;;;7.03;2.70;;;;;;;16.49;82.10;100819.50;5088745;28;20058;-65
2023/09/20 00:57:47;;;;;;;10.82;2.53;;;;;;;16.43;82.29;100821.13;5088228;28;20024;-66
2023/09/20 01:00:21;;;;;;;9.05;2.72;;;;;;;16.39;82.71;100824.44;5084942;28;20057;-66
2023/09/20 01:02:49;;;;;;;10.25;2.83;;;;;;;16.34;82.84;100825.06;5088161;28;20024;-66
2023/09/20 01:05:15;;;;;;;7.90;2.63;;;;;;;16.31;83.31;100828.16;5083936;28;20033;-65
2023/09/20 01:07:42;;;;;;;9.75;3.15;;;;;;;16.29;83.41;100818.69;5082748;28;20024;-66
2023/09/20 01:10:08;;;;;;;9.18;2.92;;;;;;;16.26;83.64;100825.28;5087314;28;20082;-65
2023/09/20 01:12:33;;;;;;;9.65;2.63;;;;;;;16.28;83.85;100820.56;5083364;28;20080;-66
2023/09/20 01:14:58;;;;;;;8.25;2.65;;;;;;;16.20;83.89;100810.06;5084893;28;20103;-65
2023/09/20 01:17:24;;;;;;;7.63;2.83;;;;;;;16.25;84.33;100806.75;5085420;28;20391;-65
2023/09/20 01:19:49;;;;;;;9.93;2.78;;;;;;;16.22;84.29;100809.84;5087243;28;20019;-65
2023/09/20 01:22:15;;;;;;;4.78;2.50;;;;;;;16.20;84.51;100814.59;5085635;28;20036;-65
2023/09/20 01:24:41;;;;;;;7.10;2.80;;;;;;;16.22;84.73;100815.22;5086063;28;20028;-66
2023/09/20 01:27:08;;;;;;;10.18;2.95;;;;;;;16.20;84.54;100802.03;5088062;28;20020;-66
2023/09/20 01:29:34;;;;;;;8.57;2.90;;;;;;;16.18;84.92;100806.72;5087208;28;20040;-65
2023/09/20 01:32:01;;;;;;;10.35;2.75;;;;;;;16.16;84.97;100795.41;5078811;28;20095;-65
2023/09/20 01:34:27;;;;;;;7.93;2.30;;;;;;;16.14;84.96;100796.66;5087378;28;20030;-66
2023/09/20 01:36:52;;;;;;;11.15;2.72;;;;;;;16.14;85.14;100799.31;5073970;28;20016;-65
2023/09/20 01:39:18;;;;;;;6.88;2.80;;;;;;;16.11;85.26;100800.56;5081160;28;20028;-65
2023/09/20 01:41:46;;;;;;;9.23;3.08;;;;;;;16.11;85.62;100804.06;5088155;28;20065;-65
2023/09/20 01:44:11;;;;;;;7.95;2.90;;;;;;;16.08;85.32;100799.13;5084438;28;20027;-65
2023/09/20 01:46:36;;;;;;;7.43;2.47;;;;;;;16.08;85.64;100790.25;5079387;28;20110;-65
2023/09/20 01:49:05;;;;;;;13.18;3.13;;;;;;;16.08;85.71;100790.25;5084596;28;20104;-66
2023/09/20 01:51:30;;;;;;;8.57;2.87;;;;;;;16.07;85.66;100784.09;5085138;28;20181;-66
2023/09/20 01:53:56;;;;;;;11.85;2.92;;;;;;;16.04;85.80;100786.34;5086612;28;20115;-65
2023/09/20 01:56:22;;;;;;;11.30;2.88;;;;;;;16.02;85.98;100780.38;5089288;28;20026;-65
2023/09/20 01:58:49;;;;;;;7.55;2.80;;;;;;;15.98;86.23;100773.81;5086288;28;20050;-65
2023/09/20 02:01:14;;;;;;;8.93;2.70;;;;;;;16.00;86.37;100771.75;5089090;28;20118;-65
2023/09/20 02:03:40;;;;;;;8.95;2.67;;;;;;;15.97;86.61;100764.13;5091391;28;20464;-65
2023/09/20 02:06:06;;;;;;;8.07;2.85;;;;;;;15.98;86.64;100760.41;5082994;28;20028;-65
2023/09/20 02:08:32;;;;;;;6.90;2.55;;;;;;;15.95;86.74;100755.47;5082336;28;20021;-66
2023/09/20 02:10:57;;;;;;;8.18;2.85;;;;;;;15.97;86.71;100750.72;5080387;28;20031;-65
2023/09/20 02:13:22;;;;;;;10.30;2.78;;;;;;;15.99;86.78;100751.34;5083835;28;20043;-65
2023/09/20 02:15:47;;;;;;;7.88;2.70;;;;;;;16.03;86.91;100740.00;5088358;28;20058;-66
2023/09/20 02:18:13;;;;;;;8.32;2.95;;;;;;;16.07;86.73;100753.78;5084058;28;20081;-65
2023/09/20 02:20:38;;;;;;;7.55;2.67;;;;;;;16.08;86.74;100752.75;5086276;28;20073;-65
2023/09/20 02:23:06;;;;;;;10.40;2.90;;;;;;;16.07;86.68;100751.13;5090781;28;20705;-66
2023/09/20 02:25:32;;;;;;;6.53;3.20;;;;;;;16.08;86.77;100742.03;5086080;28;20023;-65
2023/09/20 02:27:58;;;;;;;7.22;2.80;;;;;;;16.04;86.86;100744.31;5084067;28;20030;-65
2023/09/20 02:30:26;;;;;;;6.05;2.80;;;;;;;16.11;86.99;100744.31;5087402;28;20027;-65
2023/09/20 02:32:52;;;;;;;6.40;2.80;;;;;;;16.14;87.15;100740.38;5085832;28;20115;-65
2023/09/20 02:35:18;;;;;;;7.80;2.78;;;;;;;16.18;87.11;100742.44;5086091;28;20277;-65
2023/09/20 02:37:45;;;;;;;7.88;2.85;;;;;;;16.18;87.17;100733.56;5085662;28;20028;-65
2023/09/20 02:40:13;;;;;;;10.05;2.97;;;;;;;16.27;86.84;100743.88;5085860;28;20074;-66
2023/09/20 02:42:52;;;;;;;9.88;2.67;;;;;;;16.31;86.89;100733.56;5079623;28;20027;-65
2023/09/20 02:45:19;;;;;;;8.65;2.75;;;;;;;16.32;86.77;100736.03;5092075;28;20039;-66
2023/09/20 02:47:48;;;;;;;5.97;2.75;;;;;;;16.33;86.54;100724.25;5078663;28;20020;-66
2023/09/20 02:50:16;;;;;;;9.43;2.70;;;;;;;16.36;86.78;100734.56;5087847;28;20016;-65
2023/09/20 02:52:44;;;;;;;9.50;3.10;;;;;;;16.36;86.68;100723.00;5086904;28;20027;-66
2023/09/20 02:55:13;;;;;;;8.48;2.80;;;;;;;16.35;86.49;100719.50;5082039;28;20299;-65
2023/09/20 02:57:43;;;;;;;9.73;2.63;;;;;;;16.33;86.63;100734.97;5087144;28;20119;-65
2023/09/20 03:00:14;;;;;;;8.23;2.97;;;;;;;16.35;86.64;100721.38;5086237;28;20102;-65
2023/09/20 03:02:44;;;;;;;9.00;2.75;;;;;;;16.38;86.66;100716.41;5091990;28;20028;-66
2023/09/20 03:05:10;;;;;;;12.52;3.00;;;;;;;16.38;86.59;100716.41;5087370;28;20405;-65
2023/09/20 03:07:36;;;;;;;9.63;2.92;;;;;;;16.36;86.76;100712.28;5088152;28;20028;-66
2023/09/20 03:10:05;;;;;;;8.80;2.63;;;;;;;16.34;86.76;100714.38;5079001;28;20115;-66
2023/09/20 03:12:30;;;;;;;;;;;;;;;16.36;86.85;100713.13;5081305;28;20032;-65
2023/09/20 03:14:56;;;;;;;9.82;2.67;;;;;;;16.31;86.81;100712.09;5087372;28;19908;-66
2023/09/20 03:17:21;;;;;;;11.20;2.92;;;;;;;16.29;86.95;100709.66;5086788;28;20016;-65
2023/09/20 03:19:53;;;;;;;9.00;2.60;;;;;;;16.29;87.11;100706.97;5079053;28;20024;-66
2023/09/20 03:22:18;;;;;;;9.13;3.17;;;;;;;16.26;87.25;100690.50;5089651;28;20392;-65
2023/09/20 03:24:47;;;;;;;9.50;2.75;;;;;;;16.23;87.48;100691.72;5079350;28;20504;-65
2023/09/20 03:27:15;;;;;;;12.07;3.20;;;;;;;16.27;87.29;100689.44;5085953;28;20048;-66
2023/09/20 03:29:40;;;;;;;8.70;3.08;;;;;;;16.26;87.48;100693.16;5087877;28;20035;-65
2023/09/20 03:32:05;;;;;;;7.50;2.70;;;;;;;16.26;87.85;100703.88;5089491;28;20012;-65
2023/09/20 03:34:30;;;;;;;11.38;2.83;;;;;;;16.28;87.79;100713.34;5089869;28;20435;-66
2023/09/20 03:36:57;;;;;;;9.43;2.90;;;;;;;16.30;87.78;100703.25;5085078;28;20024;-65
2023/09/20 03:39:24;;;;;;;8.43;2.90;;;;;;;16.28;87.79;100697.28;5081789;28;20050;-66
2023/09/20 03:41:51;;;;;;;7.63;3.15;;;;;;;16.26;87.82;100712.75;5085841;28;20384;-65
2023/09/20 03:44:17;;;;;;;7.75;3.03;;;;;;;16.23;87.79;100712.34;5078700;28;20012;-65
2023/09/20 03:46:42;;;;;;;6.15;2.70;;;;;;;16.21;88.05;100709.06;5090389;28;20027;-65
2023/09/20 03:49:07;;;;;;;10.15;3.00;;;;;;;16.19;88.07;100716.47;5085823;28;21642;-65
2023/09/20 03:51:32;;;;;;;7.25;2.72;;;;;;;16.08;88.26;100707.22;5088732;28;20052;-65
2023/09/20 03:53:58;;;;;;;9.02;3.00;;;;;;;16.06;88.27;100706.59;5086993;28;20052;-65
2023/09/20 03:56:23;;;;;;;7.25;2.80;;;;;;;16.04;88.81;100701.47;5087837;28;20028;-65
2023/09/20 03:58:48;;;;;;;6.32;2.60;;;;;;;16.01;88.99;100707.25;5085084;28;20523;-65
2023/09/20 04:01:15;;;;;;;10.88;3.13;;;;;;;15.98;88.96;100707.66;5091638;28;20488;-66
2023/09/20 04:03:41;;;;;;;9.52;2.80;;;;;;;15.95;89.15;100704.59;5087634;28;20025;-65
2023/09/20 04:06:07;;;;;;;9.43;2.70;;;;;;;15.91;89.00;100706.84;5087612;28;20016;-65
2023/09/20 04:08:32;;;;;;;7.22;2.78;;;;;;;15.89;89.32;100705.41;5081516;28;20022;-66
2023/09/20 04:10:57;;;;;;;7.75;2.95;;;;;;;15.82;89.64;100691.19;5091143;28;20042;-65
2023/09/20 04:13:24;;;;;;;10.20;3.20;;;;;;;15.79;89.72;100705.81;5085157;28;20038;-65
2023/09/20 04:15:49;;;;;;;8.15;3.17;;;;;;;15.75;90.00;100693.88;5085159;28;20405;-65
2023/09/20 04:18:15;;;;;;;9.68;3.10;;;;;;;15.73;90.19;100698.63;5089396;28;20039;-65
2023/09/20 04:20:45;;;;;;;8.63;2.90;;;;;;;15.67;90.59;100694.94;5088183;28;20054;-65
2023/09/20 04:23:11;;;;;;;11.18;3.25;;;;;;;15.62;90.39;100689.38;5087730;28;20067;-66
2023/09/20 04:25:36;;;;;;;10.25;3.13;;;;;;;15.61;90.54;100690.41;5090194;28;20040;-66
2023/09/20 04:28:01;;;;;;;8.50;2.67;;;;;;;15.57;90.82;100682.94;5086356;28;20020;-65
2023/09/20 04:30:28;;;;;;;10.35;3.22;;;;;;;15.54;90.97;100678.84;5083587;28;20566;-66
2023/09/20 04:32:55;;;;;;;8.10;3.35;;;;;;;15.52;91.22;100678.22;5086783;28;20016;-66
2023/09/20 04:35:20;;;;;;;9.00;3.28;;;;;;;15.50;91.78;100673.06;5085806;28;20039;-65
2023/09/20 04:37:45;;;;;;;7.85;3.08;;;;;;;15.48;91.43;100677.00;5084603;28;20409;-66
2023/09/20 04:40:11;;;;;;;10.75;3.30;;;;;;;15.44;91.96;100665.88;5088534;28;20076;-66
2023/09/20 04:42:38;;;;;;;11.15;3.03;;;;;;;15.44;91.90;100654.34;5086823;28;20500;-65
2023/09/20 04:45:07;;;;;;;9.60;3.30;;;;;;;15.43;92.26;100666.09;5090885;28;20028;-66
2023/09/20 04:47:35;;;;;;;7.20;3.20;;;;;;;15.40;92.33;100670.00;5082990;28;20619;-65
2023/09/20 04:50:02;;;;;;;10.30;3.35;;;;;;;15.40;92.47;100664.66;5086980;28;20044;-66
2023/09/20 04:52:27;;;;;;;8.00;3.03;;;;;;;15.38;92.41;100671.25;5085807;28;20046;-66
2023/09/20 04:54:54;;;;;;;11.85;3.97;;;;;;;15.35;92.75;100667.13;5086404;28;20020;-66
2023/09/20 04:57:20;;;;;;;10.30;3.40;;;;;;;15.32;92.83;100672.88;5086066;28;20034;-65
2023/09/20 04:59:45;;;;;;;11.18;3.22;;;;;;;15.31;92.77;100667.72;5087743;28;20110;-66
2023/09/20 05:02:10;;;;;;;15.73;3.65;;;;;;;15.27;93.05;100663.81;5088143;28;20039;-65
2023/09/20 05:04:36;;;;;;;7.28;2.97;;;;;;;15.23;93.16;100663.41;5088346;28;20174;-65
2023/09/20 05:07:05;;;;;;;9.70;3.08;;;;;;;15.25;93.12;100676.56;5085708;28;20028;-66
2023/09/20 05:09:32;;;;;;;7.68;2.90;;;;;;;15.22;93.70;100674.31;5084307;28;20020;-65
2023/09/20 05:11:57;;;;;;;10.38;3.28;;;;;;;15.21;93.79;100675.34;5090023;28;20525;-65
2023/09/20 05:14:23;;;;;;;8.45;3.25;;;;;;;15.19;93.66;100670.19;5088235;28;20150;-65
2023/09/20 05:16:48;;;;;;;9.15;3.10;;;;;;;15.18;94.02;100677.41;5082735;28;20162;-65
2023/09/20 05:19:13;;;;;;;12.52;3.45;;;;;;;15.16;94.19;100663.41;5085639;28;20024;-65
2023/09/20 05:21:39;;;;;;;11.57;3.30;;;;;;;15.13;94.20;100661.16;5083166;28;20044;-65
2023/09/20 05:24:04;;;;;;;6.75;3.15;;;;;;;15.12;94.48;100666.69;5091026;28;20525;-65
2023/09/20 05:26:29;;;;;;;10.48;3.33;;;;;;;15.08;94.88;100658.25;5087624;28;20019;-65
2023/09/20 05:28:54;;;;;;;9.80;3.67;;;;;;;15.11;94.83;100665.88;5087965;28;20512;-65
2023/09/20 05:31:22;;;;;;;9.60;3.08;;;;;;;15.10;94.88;100661.56;5083505;28;20042;-65
2023/09/20 05:33:48;;;;;;;10.25;3.47;;;;;;;15.11;95.07;100659.69;5089415;28;20024;-65
2023/09/20 05:36:14;;;;;;;8.38;2.92;;;;;;;15.10;95.22;100668.75;5089375;28;20031;-65
2023/09/20 05:38:39;;;;;;;9.45;3.47;;;;;;;15.10;95.18;100656.22;5085594;28;20057;-65
2023/09/20 05:41:04;;;;;;;10.23;3.20;;;;;;;15.09;95.51;100651.88;5085562;28;20051;-65
2023/09/20 05:43:29;;;;;;;8.52;3.13;;;;;;;15.11;96.34;100655.19;5088124;28;20074;-65
2023/09/20 05:45:55;;;;;;;10.27;3.33;;;;;;;15.14;95.82;100653.94;5082227;28;20729;-65
2023/09/20 05:48:20;;;;;;;7.60;3.10;;;;;;;15.15;95.81;100651.06;5086501;28;20032;-65
2023/09/20 05:50:47;;;;;;;10.88;3.20;;;;;;;15.15;95.93;100651.06;5086238;28;20397;-65
2023/09/20 05:53:12;;;;;;;8.20;3.33;;;;;;;15.18;96.17;100647.97;5086114;28;20542;-65
2023/09/20 05:55:38;;;;;;;8.40;3.00;;;;;;;15.20;96.12;100647.75;5084580;28;20115;-65
2023/09/20 05:58:04;;;;;;;10.35;3.55;;;;;;;15.19;96.33;100652.28;5088750;28;20047;-65
2023/09/20 06:00:30;;;;;;;9.65;3.50;;;;;;;15.24;96.31;100648.19;5083928;28;20062;-65
2023/09/20 06:02:57;;;;;;;12.20;3.20;;;;;;;15.25;96.31;100649.81;5087994;28;20592;-65
2023/09/20 06:05:26;;;;;;;7.57;3.20;;;;;;;15.31;96.50;100646.31;5086087;28;20027;-65
2023/09/20 06:07:53;;;;;;;8.27;3.22;;;;;;;15.33;96.22;100641.63;5080700;28;20538;-65
2023/09/20 06:10:19;;;;;;;12.43;3.30;;;;;;;15.39;96.32;100643.44;5084490;28;20028;-65
2023/09/20 06:12:45;;;;;;;10.10;3.08;;;;;;;15.42;96.39;100651.88;5088768;28;20055;-66
2023/09/20 06:15:13;;;;;;;8.82;3.08;;;;;;;15.42;96.26;100643.84;5082547;28;20043;-65
2023/09/20 06:17:39;;;;;;;9.48;3.30;;;;;;;15.47;96.21;100640.56;5083580;28;20067;-65
2023/09/20 06:20:09;;;;;;;12.23;2.90;;;;;;;15.50;96.22;100638.28;5083210;28;20055;-65
2023/09/20 06:22:35;;;;;;;9.75;2.90;;;;;;;15.52;96.37;100635.41;5085400;28;20028;-65
2023/09/20 06:25:01;;;;;;;6.65;2.65;;;;;;;15.57;96.07;100648.16;5084186;28;20027;-65
2023/09/20 06:27:30;;;;;;;7.20;2.92;;;;;;;15.58;96.38;100642.63;5088842;28;20024;-65
2023/09/20 06:29:56;;;;;;;7.68;2.92;;;;;;;15.64;96.10;100643.66;5082430;28;20550;-65
2023/09/20 06:32:21;;;;;;;8.30;3.10;;;;;;;15.68;95.88;100639.53;5087818;28;20111;-65
2023/09/20 06:34:46;;;;;;;8.52;3.20;;;;;;;15.71;96.05;100644.47;5085417;28;20062;-65
2023/09/20 06:37:12;;;;;;;9.82;3.13;;;;;;;15.74;95.90;100658.25;5087179;28;20496;-65
2023/09/20 06:39:38;;;;;;;7.60;2.92;;;;;;;15.77;96.03;100644.44;5076792;28;20028;-65
2023/09/20 06:42:04;;;;;;;8.07;2.95;;;;;;;15.83;95.99;100656.19;5087629;28;20464;-65
2023/09/20 06:44:35;;;;;;;6.97;3.03;;;;;;;15.85;95.86;100664.00;5081965;28;20505;-65
2023/09/20 06:47:00;;;;;;;9.40;3.03;;;;;;;15.83;95.63;100631.25;5083683;28;20032;-65
2023/09/20 06:49:26;;;;;;;9.00;3.33;;;;;;;15.95;95.80;100656.38;5084888;28;20024;-65
2023/09/20 06:51:52;;;;;;;7.95;2.97;;;;;;;16.01;95.52;100639.44;5085117;28;20741;-65
2023/09/20 06:54:17;;;;;;;11.40;3.40;;;;;;;16.07;95.81;100638.59;5083202;28;20025;-65
2023/09/20 06:56:43;;;;;;;7.05;3.05;;;;;;;16.14;95.44;100636.72;5087574;28;20059;-65
2023/09/20 06:59:08;;;;;;;6.70;2.80;;;;;;;16.15;95.48;100633.00;5079863;28;20020;-65
2023/09/20 07:01:33;;;;;;;10.48;3.08;;;;;;;16.23;95.25;100643.50;5085104;28;20028;-65
2023/09/20 07:03:58;;;;;;;7.55;2.85;;;;;;;16.26;94.99;100642.25;5080989;28;20020;-65
2023/09/20 07:06:25;;;;;;;7.88;2.75;;;;;;;16.30;94.79;100635.44;5086896;28;20016;-65
2023/09/20 07:08:50;;;;;;;6.90;2.78;;;;;;;16.33;94.74;100643.03;5082449;28;20074;-65
2023/09/20 07:11:17;;;;;;;7.35;3.00;;;;;;;16.36;94.28;100645.28;5091604;28;20028;-65
2023/09/20 07:13:42;;;;;;;6.47;3.10;;;;;;;16.37;94.40;100649.63;5084580;28;20499;-64
2023/09/20 07:16:09;;;;;;;6.20;2.50;;;;;;;16.39;94.10;100640.31;5087044;28;20024;-65
2023/09/20 07:18:35;;;;;;;6.13;2.60;;;;;;;16.41;94.31;100646.28;5085882;28;20013;-65
2023/09/20 07:21:02;;;;;;;5.65;2.80;;;;;;;16.41;94.17;100638.25;5082626;28;20478;-65
2023/09/20 07:23:29;;;;;;;5.75;2.45;;;;;;;16.44;94.07;100631.63;5085950;28;20029;-65
2023/09/20 07:25:55;;;;;;;7.20;2.50;;;;;;;16.48;93.87;100640.06;5088831;28;20024;-65
2023/09/20 07:28:22;;;;;;;4.90;2.90;;;;;;;16.52;93.71;100644.00;5086439;28;20464;-65
2023/09/20 07:30:47;;;;;;;6.20;2.60;;;;;;;16.54;93.83;100633.88;5091788;28;20594;-65
2023/09/20 07:33:23;;;;;;;8.45;2.92;;;;;;;16.61;93.87;100640.84;5087340;28;20015;-65
2023/09/20 07:35:58;;;;;;;6.88;2.60;;;;;;;16.66;93.39;100646.41;5080889;28;20029;-65
2023/09/20 07:38:28;;;;;;;6.30;2.78;;;;;;;16.69;93.04;100648.66;5080437;28;20022;-65
2023/09/20 07:41:17;;;;;;;5.75;2.75;;;;;;;16.73;92.60;100649.03;5086896;28;20069;-65
2023/09/20 07:43:43;;;;;;;7.63;2.85;;;;;;;16.76;92.64;100648.59;5081569;28;20587;-66
2023/09/20 07:46:09;;;;;;;5.82;2.78;;;;;;;16.78;92.68;100638.50;5083558;28;20043;-65
2023/09/20 07:48:37;;;;;;;7.18;3.00;;;;;;;16.80;92.67;100647.16;5085490;28;20016;-65
2023/09/20 07:51:04;;;;;;;7.72;2.72;;;;;;;16.83;92.30;100636.00;5085036;28;20058;-65
2023/09/20 07:53:30;;;;;;;7.88;2.42;;;;;;;16.87;92.33;100645.25;5087759;28;20024;-65
2023/09/20 07:56:03;;;;;;;5.82;2.83;;;;;;;16.90;92.42;100636.78;5075043;28;20020;-65
2023/09/20 07:58:32;;;;;;;6.55;2.70;;;;;;;16.98;91.98;100633.81;5082652;28;20016;-65
2023/09/20 08:00:58;;;;;;;5.50;2.55;;;;;;;17.04;91.45;100626.75;5082080;28;20027;-65
2023/09/20 08:03:23;;;;;;;6.07;2.67;;;;;;;17.10;91.05;100638.50;5090613;28;20481;-65
2023/09/20 08:05:50;;;;;;;7.18;2.40;;;;;;;17.15;91.14;100638.66;5085773;28;20086;-65
2023/09/20 08:08:15;;;;;;;6.50;2.70;;;;;;;17.22;90.46;100637.56;5083421;28;20043;-65
2023/09/20 08:10:41;;;;;;;6.50;2.55;;;;;;;17.28;90.47;100643.91;5091379;28;20066;-66
2023/09/20 08:13:07;;;;;;;4.47;2.60;;;;;;;17.33;90.25;100636.00;5087293;28;20037;-65
2023/09/20 08:15:42;;;;;;;7.65;2.60;;;;;;;17.40;89.82;100638.66;5084136;28;20035;-67
2023/09/20 08:20:53;;;;;;;6.38;2.80;;;;;;;17.52;89.90;100658.38;5087798;28;20035;-65
2023/09/20 09:01:44;;;;;;;6.38;2.67;;;;;;;18.03;86.89;100651.91;5076773;28;20090;-65
2023/09/20 09:04:12;;;;;;;11.25;2.92;;;;;;;18.08;86.87;100647.47;5085397;28;20016;-65
2023/09/20 09:06:39;;;;;;;9.65;3.00;;;;;;;18.14;86.43;100657.34;5075323;28;20047;-65
2023/09/20 09:09:04;;;;;;;8.25;3.00;;;;;;;18.18;86.08;100658.53;5087339;28;20020;-65
2023/09/20 09:11:30;;;;;;;7.25;2.80;;;;;;;18.19;85.63;100652.09;5083832;28;20515;-66
2023/09/20 09:13:58;;;;;;;8.35;2.90;;;;;;;18.19;85.28;100662.03;5084858;28;20035;-66
2023/09/20 09:16:26;;;;;;;9.73;3.22;;;;;;;18.20;85.16;100652.91;5089118;28;20020;-66
2023/09/20 09:18:53;;;;;;;6.70;3.25;;;;;;;18.22;85.19;100665.13;5081554;28;20028;-66
2023/09/20 09:21:19;;;;;;;4.68;2.95;;;;;;;18.26;85.37;100655.53;5085687;28;21246;-65
2023/09/20 09:23:46;;;;;;;6.68;3.20;;;;;;;18.28;84.37;100663.38;5086328;28;20031;-65
2023/09/20 09:26:12;;;;;;;6.38;3.10;;;;;;;18.27;83.76;100657.19;5085404;28;20024;-65
2023/09/20 09:28:41;;;;;;;8.35;3.08;;;;;;;18.30;83.98;100655.91;5081959;28;20031;-65
2023/09/20 09:31:09;;;;;;;6.00;3.03;;;;;;;18.31;83.70;100645.97;5085313;28;20547;-65
2023/09/20 09:33:36;;;;;;;5.47;3.00;;;;;;;18.35;83.52;100652.53;5089327;28;20020;-65
2023/09/20 09:36:03;;;;;;;7.00;2.95;;;;;;;18.37;83.69;100643.19;5089883;28;20039;-65
2023/09/20 09:38:32;;;;;;;7.53;2.88;;;;;;;18.44;83.92;100640.41;5084933;28;20030;-65
2023/09/20 09:40:58;;;;;;;9.23;3.20;;;;;;;18.52;83.95;100656.25;5082325;28;20012;-65
2023/09/20 09:43:25;;;;;;;5.63;2.80;;;;;;;18.55;83.34;100650.44;5084654;28;20028;-65
2023/09/20 09:45:54;;;;;;;7.15;2.58;;;;;;;18.56;83.27;100642.13;5082971;28;20024;-65
2023/09/20 09:48:22;;;;;;;5.30;2.53;;;;;;;18.61;83.06;100637.94;5085623;28;20023;-66
2023/09/20 09:50:49;;;;;;;6.60;2.60;;;;;;;18.63;83.07;100635.88;5081283;28;20048;-65
2023/09/20 09:53:15;;;;;;;6.32;2.67;;;;;;;18.70;82.69;100628.50;5095654;28;20026;-65
2023/09/20 09:55:41;;;;;;;6.95;2.80;;;;;;;18.73;82.96;100633.44;5084866;28;20386;-66
2023/09/20 09:58:09;;;;;;;5.78;2.50;;;;;;;18.75;82.89;100632.16;5095562;28;20020;-66
2023/09/20 10:00:36;;;;;;;7.50;2.50;;;;;;;18.79;82.88;100629.81;5080512;28;20052;-66
2023/09/20 10:03:19;;;;;;;7.88;2.95;;;;;;;18.85;83.11;100634.31;5081264;28;20019;-66
2023/09/20 10:05:46;;;;;;;6.22;2.40;;;;;;;18.88;82.55;100620.38;5080334;28;20073;-66
2023/09/20 10:08:13;;;;;;;5.75;2.60;;;;;;;18.90;82.63;100620.97;5084933;28;20084;-65
2023/09/20 10:10:41;;;;;;;5.13;2.30;;;;;;;18.99;82.20;100621.44;5084745;28;20485;-65
2023/09/20 10:13:10;;;;;;;6.00;2.40;;;;;;;19.03;81.32;100617.25;5085875;28;20055;-65
2023/09/20 10:15:35;;;;;;;6.13;2.20;;;;;;;19.03;80.67;100610.00;5090474;28;20051;-66
2023/09/20 10:18:01;;;;;;;5.47;2.05;;;;;;;19.13;80.64;100612.94;5081231;28;20027;-65
2023/09/20 10:20:57;;;;;;;4.90;2.22;;;;;;;19.24;80.56;100619.38;5087245;28;20023;-66
2023/09/20 10:23:23;;;;;;;5.97;2.50;;;;;;;19.26;79.75;100605.69;5084474;28;20036;-66
2023/09/20 10:25:48;;;;;;;4.53;2.20;;;;;;;19.29;79.32;100622.19;5080052;28;20039;-65
2023/09/20 10:28:16;;;;;;;5.22;2.15;;;;;;;19.32;78.86;100613.66;5085433;28;20394;-65
2023/09/20 10:31:02;;;;;;;6.43;2.15;;;;;;;19.39;78.58;100605.47;5084323;28;20024;-67
2023/09/20 10:33:52;;;;;;;4.43;2.13;;;;;;;19.52;78.26;100615.19;5082460;28;20579;-66
2023/09/20 10:36:22;;;;;;;4.50;2.20;;;;;;;19.67;78.97;100600.22;5087975;28;20035;-66
2023/09/20 10:38:48;;;;;;;4.38;2.17;;;;;;;19.74;78.45;100597.41;5087388;28;20587;-66
2023/09/20 10:41:16;;;;;;;2.72;2.00;;;;;;;19.84;77.70;100600.28;5085855;28;20432;-67
2023/09/20 10:43:46;;;;;;;3.63;2.25;;;;;;;19.92;77.12;100589.13;5085959;28;20024;-67
2023/09/20 10:46:14;;;;;;;6.03;2.20;;;;;;;19.92;76.36;100580.22;5086762;28;20023;-67
2023/09/20 10:48:50;;;;;;;4.63;2.10;;;;;;;19.94;76.11;100573.53;5089900;28;20090;-67
2023/09/20 10:51:43;;;;;;;4.90;1.85;;;;;;;19.95;74.99;100587.84;5082489;28;20069;-67
2023/09/20 10:54:36;;;;;;;6.00;1.90;;;;;;;19.94;75.01;100581.63;5094948;28;20070;-67
2023/09/20 10:57:09;;;;;;;4.30;1.80;;;;;;;19.92;75.00;100581.06;5080058;28;20374;-68
2023/09/20 10:59:34;;;;;;;3.95;1.80;;;;;;;19.88;74.90;100579.06;5084832;28;20043;-67
2023/09/20 11:02:12;;;;;;;3.97;2.00;;;;;;;19.89;74.64;100586.91;5082110;28;20024;-66
2023/09/20 11:04:38;;;;;;;2.38;1.45;;;;;;;19.88;74.14;100574.50;5088082;28;20024;-66
2023/09/20 11:07:05;;;;;;;3.13;1.50;;;;;;;19.90;74.30;100583.16;5080650;28;20167;-66
2023/09/20 11:09:31;;;;;;;4.63;1.83;;;;;;;19.91;74.03;100571.31;5079685;28;20020;-67
2023/09/20 11:12:16;;;;;;;3.92;1.67;;;;;;;19.97;74.80;100580.38;5084942;28;21655;-67
2023/09/20 11:14:44;;;;;;;6.15;1.77;;;;;;;19.97;74.53;100575.78;5083662;28;20040;-67
2023/09/20 11:17:15;;;;;;;3.83;1.52;;;;;;;20.01;74.59;100576.13;5085938;28;20024;-67
2023/09/20 11:19:40;;;;;;;3.50;1.85;;;;;;;20.03;74.48;100569.44;5082286;28;20371;-67
2023/09/20 11:22:05;;;;;;;2.45;1.60;;;;;;;20.05;73.82;100571.91;5083572;28;20109;-66
2023/09/20 11:24:32;;;;;;;4.47;1.80;;;;;;;20.05;73.55;100566.50;5088223;28;20100;-68
2023/09/20 11:26:57;;;;;;;3.53;1.90;;;;;;;20.04;74.19;100571.06;5082570;28;20051;-67
2023/09/20 11:29:24;;;;;;;3.28;1.70;;;;;;;20.09;74.21;100568.47;5087924;28;20081;-68
2023/09/20 11:31:56;;;;;;;3.35;1.90;;;;;;;20.13;73.68;100568.81;5080898;28;20056;-67
2023/09/20 11:34:21;;;;;;;4.20;2.00;;;;;;;20.09;73.93;100555.00;5078056;28;20048;-68
2023/09/20 11:36:47;;;;;;;3.38;1.70;;;;;;;20.15;74.11;100560.47;5080294;28;20465;-67
2023/09/20 11:39:14;;;;;;;5.38;1.77;;;;;;;20.14;72.92;100569.63;5078952;28;20024;-67
2023/09/20 11:41:42;;;;;;;5.20;1.58;;;;;;;20.11;73.12;100571.75;5084871;28;20066;-67
2023/09/20 11:44:08;;;;;;;2.63;1.52;;;;;;;20.14;72.82;100572.31;5086733;28;20016;-67
2023/09/20 11:46:34;;;;;;;5.28;1.70;;;;;;;20.15;72.53;100565.88;5085756;28;20038;-67
2023/09/20 11:49:01;;;;;;;5.80;1.83;;;;;;;20.20;72.41;100560.56;5082296;28;20034;-67
2023/09/20 11:51:28;;;;;;;2.25;1.75;;;;;;;20.28;72.15;100566.41;5090554;28;20515;-67
2023/09/20 11:53:54;;;;;;;4.50;1.65;;;;;;;20.47;72.75;100587.81;5088749;28;20028;-67
2023/09/20 11:56:25;;;;;;;4.43;2.03;;;;;;;20.66;72.37;100554.16;5089651;28;20032;-67
2023/09/20 11:58:52;;;;;;;3.03;1.60;;;;;;;20.76;70.31;100567.00;5095637;28;20069;-66
2023/09/20 12:01:23;;;;;;;3.63;1.77;;;;;;;20.75;69.63;100563.50;5089945;28;20024;-66
2023/09/20 12:03:51;;;;;;;5.25;2.05;;;;;;;20.69;69.81;100557.19;5085434;28;20028;-67
2023/09/20 12:06:17;;;;;;;3.85;1.80;;;;;;;20.78;69.69;100568.41;5082454;28;20700;-67